Time;durP1;ratioP1;P1;durP2;ratioP2;P2;SDS_P1;SDS_P2;PMS_P1;PMS_P2;Temp;Humidity;BMP_temperature;BMP_pressure;BME280_temperature;BME280_humidity;BME280_pressure;Samples;Min_cycle;Max_cycle;Signal;HPM_P1;HPM_P2
2021/10/20 00:00:52;;;;;;;14.27;10.48;;;17.50;1.00;;;;;;5073955;28;20234;-77
2021/10/20 00:03:19;;;;;;;9.93;8.38;;;17.60;1.00;;;;;;5073027;28;20739;-75
2021/10/20 00:05:46;;;;;;;14.93;11.70;;;17.70;1.00;;;;;;5085107;28;20600;-76
2021/10/20 00:08:13;;;;;;;10.70;9.07;;;17.60;1.00;;;;;;5093182;28;20729;-76
2021/10/20 00:10:41;;;;;;;16.00;9.68;;;17.50;1.00;;;;;;5093438;28;20255;-77
2021/10/20 00:13:08;;;;;;;11.93;10.55;;;17.60;1.00;;;;;;5094176;28;20206;-78
2021/10/20 00:15:36;;;;;;;14.68;9.60;;;17.40;1.00;;;;;;5093745;28;20734;-78
2021/10/20 00:18:03;;;;;;;11.45;9.18;;;17.50;1.00;;;;;;5093545;28;20285;-77
2021/10/20 00:20:30;;;;;;;16.60;10.25;;;17.60;1.00;;;;;;5093116;28;20245;-78
2021/10/20 00:22:57;;;;;;;13.90;10.90;;;17.60;1.00;;;;;;5093473;28;20209;-77
2021/10/20 00:25:24;;;;;;;11.60;9.35;;;17.60;1.00;;;;;;5092763;28;20209;-77
2021/10/20 00:27:53;;;;;;;11.40;10.27;;;17.60;1.00;;;;;;5092254;28;20258;-76
2021/10/20 00:30:20;;;;;;;18.23;10.93;;;17.60;1.00;;;;;;5078842;28;20661;-75
2021/10/20 00:32:47;;;;;;;14.18;10.70;;;17.70;1.00;;;;;;5093444;28;20205;-76
2021/10/20 00:35:14;;;;;;;14.13;9.93;;;17.60;1.00;;;;;;5092746;28;20202;-75
2021/10/20 00:37:42;;;;;;;15.50;10.00;;;17.60;1.00;;;;;;5082566;28;20210;-76
2021/10/20 00:40:10;;;;;;;14.15;9.27;;;17.60;1.00;;;;;;5089644;28;20237;-75
2021/10/20 00:42:37;;;;;;;14.27;10.77;;;17.60;1.00;;;;;;5093784;28;20206;-76
2021/10/20 00:45:07;;;;;;;11.98;10.60;;;17.60;1.00;;;;;;5093324;28;20266;-76
2021/10/20 00:47:35;;;;;;;11.60;9.25;;;17.60;1.00;;;;;;5093076;28;20197;-75
2021/10/20 00:50:02;;;;;;;12.43;10.75;;;17.60;1.00;;;;;;5093133;28;20205;-75
2021/10/20 00:52:30;;;;;;;18.40;11.93;;;17.60;1.00;;;;;;5092438;28;20206;-74
2021/10/20 00:54:58;;;;;;;14.40;9.75;;;17.50;1.00;;;;;;5092922;28;20266;-74
2021/10/20 00:57:27;;;;;;;12.20;9.10;;;17.60;1.00;;;;;;5092052;28;20206;-75
2021/10/20 00:59:56;;;;;;;13.50;9.30;;;17.60;1.00;;;;;;5092973;28;20226;-77
2021/10/20 01:02:24;;;;;;;15.98;9.98;;;17.70;1.00;;;;;;5092405;28;20212;-76
2021/10/20 01:04:51;;;;;;;14.63;10.18;;;17.60;1.00;;;;;;5092449;28;20746;-75
2021/10/20 01:07:21;;;;;;;13.90;8.85;;;17.60;1.00;;;;;;5092287;28;20258;-75
2021/10/20 01:09:49;;;;;;;13.60;9.73;;;17.70;1.00;;;;;;5092816;28;20215;-75
2021/10/20 01:12:16;;;;;;;11.10;9.50;;;17.60;1.00;;;;;;5092178;28;20258;-75
2021/10/20 01:14:44;;;;;;;11.93;9.05;;;17.50;1.00;;;;;;5092432;28;20676;-75
2021/10/20 01:17:11;;;;;;;14.23;9.75;;;17.50;1.00;;;;;;5092281;28;20616;-75
2021/10/20 01:19:43;;;;;;;16.27;10.32;;;17.60;1.00;;;;;;5092484;28;20669;-75
2021/10/20 01:22:11;;;;;;;12.02;9.27;;;17.60;1.00;;;;;;5092578;28;20209;-74
2021/10/20 01:24:39;;;;;;;15.82;9.50;;;17.50;1.00;;;;;;5092355;28;20206;-77
2021/10/20 01:27:06;;;;;;;11.15;9.98;;;17.60;1.00;;;;;;5092492;28;20205;-79
2021/10/20 01:29:33;;;;;;;15.90;9.70;;;17.70;1.00;;;;;;5091924;28;20248;-75
2021/10/20 01:32:05;;;;;;;16.38;10.80;;;17.70;1.00;;;;;;5092265;28;20213;-77
2021/10/20 01:34:32;;;;;;;12.20;8.82;;;17.70;1.00;;;;;;5091399;28;20319;-76
2021/10/20 01:37:02;;;;;;;10.70;8.82;;;17.50;1.00;;;;;;5092227;28;20266;-77
2021/10/20 01:39:31;;;;;;;16.05;10.23;;;17.40;1.00;;;;;;5090863;28;20775;-78
2021/10/20 01:41:58;;;;;;;11.35;9.68;;;17.50;1.00;;;;;;5064305;28;20244;-78
2021/10/20 01:44:25;;;;;;;11.73;9.52;;;17.50;1.00;;;;;;5091285;28;20210;-77
2021/10/20 01:46:52;;;;;;;12.77;9.38;;;17.60;1.00;;;;;;5091561;28;20263;-78
2021/10/20 01:49:20;;;;;;;11.57;9.38;;;17.60;1.00;;;;;;5091691;28;20263;-77
2021/10/20 01:51:47;;;;;;;13.77;9.48;;;17.70;1.00;;;;;;5091718;28;20262;-78
2021/10/20 01:54:15;;;;;;;13.45;9.88;;;17.80;1.00;;;;;;5091088;28;20210;-78
2021/10/20 01:56:45;;;;;;;14.52;10.25;;;17.70;1.00;;;;;;5091614;28;20265;-76
2021/10/20 01:59:12;;;;;;;16.75;9.32;;;17.60;1.00;;;;;;5091024;28;20683;-74
2021/10/20 02:01:39;;;;;;;18.65;9.75;;;17.70;1.00;;;;;;5091263;28;20766;-76
2021/10/20 02:04:10;;;;;;;11.25;9.85;;;17.70;1.00;;;;;;5085676;28;20291;-78
2021/10/20 02:06:38;;;;;;;15.10;10.07;;;17.70;1.00;;;;;;5085143;28;20236;-77
2021/10/20 02:09:07;;;;;;;15.25;10.35;;;17.70;1.00;;;;;;5091569;28;20201;-76
2021/10/20 02:11:34;;;;;;;11.60;10.38;;;17.60;1.00;;;;;;5091130;28;20205;-76
2021/10/20 02:14:03;;;;;;;13.05;10.70;;;17.50;1.00;;;;;;5090927;28;20745;-76
2021/10/20 02:16:30;;;;;;;10.60;9.05;;;17.50;1.00;;;;;;5091251;28;20201;-76
2021/10/20 02:18:58;;;;;;;13.98;9.75;;;17.60;1.00;;;;;;5091525;28;20210;-74
2021/10/20 02:21:25;;;;;;;12.73;10.38;;;17.50;1.00;;;;;;5090462;28;20221;-77
2021/10/20 02:23:52;;;;;;;17.60;9.77;;;17.40;1.00;;;;;;5091049;28;20798;-76
2021/10/20 02:26:19;;;;;;;13.60;10.05;;;17.40;1.00;;;;;;5090351;28;20263;-75
2021/10/20 02:28:46;;;;;;;14.02;9.25;;;17.50;1.00;;;;;;5091501;28;20254;-78
2021/10/20 02:31:15;;;;;;;11.40;9.75;;;17.50;1.00;;;;;;5090613;28;20632;-76
2021/10/20 02:33:42;;;;;;;11.55;9.43;;;17.60;1.00;;;;;;5091167;28;20284;-73
2021/10/20 02:36:09;;;;;;;11.45;9.60;;;17.40;1.00;;;;;;5090797;28;20239;-73
2021/10/20 02:38:36;;;;;;;11.43;9.07;;;17.50;1.00;;;;;;5090502;28;20205;-75
2021/10/20 02:41:03;;;;;;;11.40;9.63;;;17.50;1.00;;;;;;5091091;28;20229;-73
2021/10/20 02:43:35;;;;;;;12.32;8.15;;;17.50;1.00;;;;;;5090342;28;20206;-76
2021/10/20 02:46:02;;;;;;;10.63;9.45;;;17.50;1.00;;;;;;5090983;28;20209;-77
2021/10/20 02:48:31;;;;;;;10.13;8.70;;;17.50;1.00;;;;;;5090466;28;20205;-77
2021/10/20 02:50:58;;;;;;;11.73;8.23;;;17.50;1.00;;;;;;5089720;28;20213;-75
2021/10/20 02:53:25;;;;;;;13.73;8.80;;;17.40;1.00;;;;;;5089948;28;20201;-76
2021/10/20 02:55:52;;;;;;;11.73;9.27;;;17.40;1.00;;;;;;5090713;28;20251;-75
2021/10/20 02:58:18;;;;;;;16.50;9.25;;;17.50;1.00;;;;;;5090137;28;20258;-76
2021/10/20 03:00:45;;;;;;;16.73;9.85;;;17.50;1.00;;;;;;5090575;28;20247;-75
2021/10/20 03:03:12;;;;;;;9.25;7.93;;;17.40;1.00;;;;;;5090440;28;20254;-73
2021/10/20 03:05:41;;;;;;;10.75;8.27;;;17.50;1.00;;;;;;5090272;28;20205;-75
2021/10/20 03:08:08;;;;;;;9.40;8.43;;;17.50;1.00;;;;;;5090832;28;20206;-76
2021/10/20 03:10:35;;;;;;;8.85;7.68;;;17.50;1.00;;;;;;5090374;28;20263;-74
2021/10/20 03:13:01;;;;;;;8.50;7.13;;;17.40;1.00;;;;;;5090442;28;20258;-76
2021/10/20 03:15:28;;;;;;;14.18;7.20;;;17.40;1.00;;;;;;5090352;28;20206;-75
2021/10/20 03:17:55;;;;;;;9.88;7.82;;;17.50;1.00;;;;;;5090337;28;20304;-77
2021/10/20 03:20:22;;;;;;;9.82;8.13;;;17.40;1.00;;;;;;5089906;28;20553;-74
2021/10/20 03:22:51;;;;;;;7.97;7.10;;;17.30;1.00;;;;;;5090097;28;20629;-77
2021/10/20 03:25:18;;;;;;;8.98;8.18;;;17.40;1.00;;;;;;5090291;28;20255;-76
2021/10/20 03:27:47;;;;;;;10.95;7.13;;;17.40;1.00;;;;;;5090131;28;20259;-77
2021/10/20 03:30:17;;;;;;;16.45;8.73;;;17.30;1.00;;;;;;5090186;28;20209;-75
2021/10/20 03:32:44;;;;;;;8.07;7.13;;;17.20;1.00;;;;;;5090203;28;20209;-76
2021/10/20 03:35:11;;;;;;;8.13;7.32;;;17.20;1.00;;;;;;5090521;28;20271;-75
2021/10/20 03:37:39;;;;;;;11.93;7.35;;;17.20;1.00;;;;;;5090760;28;20217;-73
2021/10/20 03:40:08;;;;;;;9.98;7.03;;;17.30;1.00;;;;;;5090236;28;20657;-72
2021/10/20 03:42:35;;;;;;;11.20;7.38;;;17.20;1.00;;;;;;5090097;28;20749;-73
2021/10/20 03:45:03;;;;;;;11.05;7.32;;;17.40;1.00;;;;;;5090095;28;20664;-74
2021/10/20 03:47:31;;;;;;;13.25;7.03;;;17.30;1.00;;;;;;5090065;28;20255;-74
2021/10/20 03:49:58;;;;;;;8.10;7.18;;;17.20;1.00;;;;;;5089658;28;20217;-72
2021/10/20 03:52:25;;;;;;;10.25;7.45;;;17.30;1.00;;;;;;5089828;28;20668;-74
2021/10/20 03:54:52;;;;;;;11.85;6.88;;;17.10;1.00;;;;;;5090186;28;20255;-74
2021/10/20 03:57:20;;;;;;;8.88;7.30;;;17.20;1.00;;;;;;5089791;28;20673;-76
2021/10/20 03:59:47;;;;;;;14.95;8.43;;;17.20;1.00;;;;;;5090052;28;20213;-75
2021/10/20 04:02:15;;;;;;;8.02;7.13;;;17.10;1.00;;;;;;5092425;28;20233;-81
2021/10/20 04:04:42;;;;;;;7.35;5.85;;;17.00;1.00;;;;;;5093884;28;20297;-85
2021/10/20 04:07:09;;;;;;;11.27;7.28;;;17.10;1.00;;;;;;5091006;28;20198;-75
2021/10/20 04:09:36;;;;;;;11.38;7.28;;;17.20;1.00;;;;;;5083448;28;20255;-85
2021/10/20 04:12:03;;;;;;;11.10;6.25;;;17.30;1.00;;;;;;5094251;28;20719;-82
2021/10/20 04:14:31;;;;;;;12.00;7.03;;;17.20;1.00;;;;;;5093225;28;20636;-85
2021/10/20 04:16:58;;;;;;;10.05;7.07;;;17.30;1.00;;;;;;5094120;28;20209;-76
2021/10/20 04:19:25;;;;;;;6.72;6.05;;;17.30;1.00;;;;;;5092860;28;20262;-78
2021/10/20 04:21:52;;;;;;;8.52;6.85;;;17.20;1.00;;;;;;5093730;28;20229;-77
2021/10/20 04:24:19;;;;;;;9.30;6.45;;;17.10;1.00;;;;;;5093112;28;20254;-77
2021/10/20 04:26:46;;;;;;;8.68;5.70;;;17.10;1.00;;;;;;5093588;28;20266;-77
2021/10/20 04:29:13;;;;;;;9.50;7.22;;;17.00;1.00;;;;;;5093228;28;20318;-77
2021/10/20 04:31:41;;;;;;;12.73;7.28;;;17.10;1.00;;;;;;5092709;28;20252;-76
2021/10/20 04:34:10;;;;;;;9.60;6.88;;;17.10;1.00;;;;;;5093667;28;20559;-78
2021/10/20 04:36:36;;;;;;;9.32;6.15;;;17.00;1.00;;;;;;5093020;28;20202;-77
2021/10/20 04:39:04;;;;;;;16.27;6.82;;;17.10;1.00;;;;;;5093252;28;20205;-83
2021/10/20 04:41:31;;;;;;;16.10;7.05;;;17.00;1.00;;;;;;5092767;28;20279;-83
2021/10/20 04:43:58;;;;;;;7.90;7.10;;;17.10;1.00;;;;;;5093630;28;20209;-82
2021/10/20 04:46:25;;;;;;;10.55;5.88;;;17.10;1.00;;;;;;5092542;28;20250;-82
2021/10/20 04:48:54;;;;;;;8.32;6.93;;;17.10;1.00;;;;;;5093228;28;20206;-81
2021/10/20 04:51:21;;;;;;;8.98;7.28;;;17.10;1.00;;;;;;5092979;28;20585;-79
2021/10/20 04:53:48;;;;;;;10.23;6.22;;;17.10;1.00;;;;;;5092907;28;20214;-81
2021/10/20 04:56:15;;;;;;;12.35;7.75;;;17.00;1.00;;;;;;5092538;28;20322;-81
2021/10/20 04:58:42;;;;;;;9.38;5.90;;;17.20;1.00;;;;;;5092856;28;20205;-79
2021/10/20 05:01:09;;;;;;;9.27;7.63;;;17.10;1.00;;;;;;5092800;28;20237;-77
2021/10/20 05:03:36;;;;;;;11.38;6.28;;;17.20;1.00;;;;;;5092359;28;20209;-82
2021/10/20 05:06:05;;;;;;;11.00;6.55;;;17.10;1.00;;;;;;5092614;28;20738;-82
2021/10/20 05:08:32;;;;;;;14.18;7.45;;;17.20;1.00;;;;;;5092160;28;20439;-82
2021/10/20 05:10:59;;;;;;;11.73;7.82;;;17.20;1.00;;;;;;5093032;28;20209;-82
2021/10/20 05:13:26;;;;;;;14.05;6.82;;;17.20;1.00;;;;;;5091261;28;20205;-78
2021/10/20 05:15:54;;;;;;;7.13;6.35;;;17.20;1.00;;;;;;5092062;28;20617;-79
2021/10/20 05:18:21;;;;;;;11.80;7.03;;;17.10;1.00;;;;;;5091973;28;20721;-81
2021/10/20 05:20:48;;;;;;;11.15;7.88;;;17.10;1.00;;;;;;5092382;28;20211;-80
2021/10/20 05:23:16;;;;;;;10.40;7.78;;;17.10;1.00;;;;;;5063649;28;20234;-80
2021/10/20 05:25:44;;;;;;;12.20;7.57;;;17.10;1.00;;;;;;5092556;28;20205;-81
2021/10/20 05:28:11;;;;;;;12.55;6.57;;;17.10;1.00;;;;;;5092201;28;20259;-78
2021/10/20 05:30:38;;;;;;;10.88;7.45;;;17.00;1.00;;;;;;5092413;28;20213;-81
2021/10/20 05:33:05;;;;;;;11.38;7.03;;;17.10;1.00;;;;;;5092326;28;20201;-80
2021/10/20 05:35:32;;;;;;;10.18;8.30;;;17.00;1.00;;;;;;5091770;28;20201;-80
2021/10/20 05:37:59;;;;;;;11.98;6.95;;;17.10;1.00;;;;;;5091785;28;20442;-79
2021/10/20 05:40:27;;;;;;;14.00;8.13;;;17.10;1.00;;;;;;5091686;28;20650;-78
2021/10/20 05:42:54;;;;;;;11.13;7.43;;;17.00;1.00;;;;;;5092019;28;20236;-82
2021/10/20 05:45:21;;;;;;;10.05;7.43;;;17.00;1.00;;;;;;5063325;28;20209;-83
2021/10/20 05:47:48;;;;;;;7.40;6.70;;;17.00;1.00;;;;;;5091899;28;20633;-82
2021/10/20 05:50:15;;;;;;;14.80;7.13;;;16.90;1.00;;;;;;5091272;28;20246;-78
2021/10/20 05:52:43;;;;;;;9.02;6.90;;;16.90;1.00;;;;;;5091766;28;20213;-81
2021/10/20 05:55:10;;;;;;;8.13;6.72;;;16.90;1.00;;;;;;5091740;28;20628;-76
2021/10/20 05:57:39;;;;;;;7.20;6.38;;;16.90;1.00;;;;;;5080307;28;20288;-79
2021/10/20 06:00:09;;;;;;;11.23;7.68;;;16.90;1.00;;;;;;5072116;28;20240;-78
2021/10/20 06:02:36;;;;;;;13.40;7.28;;;17.00;1.00;;;;;;5087387;28;20712;-77
2021/10/20 06:05:04;;;;;;;9.38;8.52;;;16.90;1.00;;;;;;5075893;28;20210;-77
2021/10/20 06:07:34;;;;;;;11.23;7.18;;;16.80;1.00;;;;;;5089117;28;20250;-74
2021/10/20 06:10:01;;;;;;;9.38;6.88;;;16.90;1.00;;;;;;5087115;28;20669;-76
2021/10/20 06:12:28;;;;;;;12.68;8.48;;;16.90;1.00;;;;;;5083091;28;20229;-77
2021/10/20 06:14:57;;;;;;;14.13;8.38;;;16.90;1.00;;;;;;5087270;28;20210;-79
2021/10/20 06:17:24;;;;;;;8.30;7.47;;;17.00;1.00;;;;;;5083945;28;20271;-77
2021/10/20 06:19:52;;;;;;;11.32;6.97;;;17.10;1.00;;;;;;5063322;28;20206;-79
2021/10/20 06:22:19;;;;;;;11.50;8.07;;;17.00;1.00;;;;;;5088511;28;20233;-76
2021/10/20 06:24:46;;;;;;;11.00;8.05;;;17.10;1.00;;;;;;5087274;28;20206;-77
2021/10/20 06:27:13;;;;;;;12.70;7.30;;;17.00;1.00;;;;;;5088405;28;20284;-77
2021/10/20 06:29:39;;;;;;;10.02;6.53;;;17.00;1.00;;;;;;5084752;28;20263;-77
2021/10/20 06:32:08;;;;;;;17.38;7.07;;;17.00;1.00;;;;;;5087699;28;20271;-84
2021/10/20 06:34:35;;;;;;;12.32;6.60;;;17.40;1.00;;;;;;5082204;28;20202;-79
2021/10/20 06:37:03;;;;;;;8.68;6.65;;;17.40;1.00;;;;;;5067717;28;20220;-79
2021/10/20 06:39:30;;;;;;;7.47;5.57;;;17.40;1.00;;;;;;5068316;28;20747;-80
2021/10/20 06:41:58;;;;;;;11.65;6.72;;;17.40;1.00;;;;;;5060414;28;20222;-83
2021/10/20 06:44:26;;;;;;;12.93;7.70;;;17.40;1.00;;;;;;5073198;28;20199;-81
2021/10/20 06:46:53;;;;;;;9.57;6.68;;;17.60;1.00;;;;;;5076779;28;20206;-82
2021/10/20 06:49:22;;;;;;;9.13;5.90;;;17.60;1.00;;;;;;5073903;28;20626;-80
2021/10/20 06:51:48;;;;;;;14.27;6.82;;;17.50;1.00;;;;;;5077483;28;20270;-77
2021/10/20 06:54:19;;;;;;;11.45;6.43;;;17.60;1.00;;;;;;5074345;28;20256;-79
2021/10/20 06:56:46;;;;;;;10.68;6.45;;;17.70;1.00;;;;;;5075967;28;20206;-80
2021/10/20 06:59:13;;;;;;;13.38;6.40;;;17.90;1.00;;;;;;5075417;28;20198;-77
2021/10/20 07:01:40;;;;;;;13.38;6.60;;;17.80;1.00;;;;;;5074758;28;20205;-80
2021/10/20 07:04:07;;;;;;;11.52;6.90;;;17.80;1.00;;;;;;5077890;28;20630;-81
2021/10/20 07:06:37;;;;;;;14.98;7.45;;;17.90;1.00;;;;;;5074326;28;20205;-80
2021/10/20 07:09:04;;;;;;;9.23;6.10;;;17.80;1.00;;;;;;5078411;28;20239;-78
2021/10/20 07:11:31;;;;;;;10.15;6.93;;;17.80;1.00;;;;;;5072915;28;20893;-80
2021/10/20 07:13:58;;;;;;;10.05;5.78;;;17.80;1.00;;;;;;5088071;28;20314;-80
2021/10/20 07:16:25;;;;;;;6.75;5.55;;;17.80;1.00;;;;;;5090066;28;20201;-72
2021/10/20 07:18:52;;;;;;;10.30;6.18;;;17.90;1.00;;;;;;5090449;28;20209;-80
2021/10/20 07:21:20;;;;;;;8.70;4.75;;;18.00;1.00;;;;;;5090039;28;20202;-80
2021/10/20 07:23:48;;;;;;;10.18;5.47;;;18.10;1.00;;;;;;5090767;28;20229;-84
2021/10/20 07:26:20;;;;;;;8.55;5.70;;;18.20;1.00;;;;;;5089390;28;20216;-78
2021/10/20 07:28:47;;;;;;;15.82;7.95;;;17.80;1.00;;;;;;5090233;28;20205;-74
2021/10/20 07:31:14;;;;;;;9.18;5.65;;;18.10;1.00;;;;;;5085125;28;20275;-76
2021/10/20 07:33:42;;;;;;;11.25;5.43;;;18.10;1.00;;;;;;5078521;28;20652;-77
2021/10/20 07:36:09;;;;;;;9.15;5.60;;;18.00;1.00;;;;;;5083645;28;20744;-77
2021/10/20 07:38:36;;;;;;;9.15;7.00;;;18.10;1.00;;;;;;5073245;28;20205;-78
2021/10/20 07:41:04;;;;;;;8.13;4.43;;;18.20;1.00;;;;;;5070548;28;20283;-77
2021/10/20 07:43:33;;;;;;;11.13;6.57;;;18.30;1.00;;;;;;5077052;28;20272;-77
2021/10/20 07:46:00;;;;;;;5.25;4.75;;;18.50;1.00;;;;;;5074341;28;20677;-80
2021/10/20 07:48:27;;;;;;;12.27;6.03;;;18.50;1.00;;;;;;5078106;28;20258;-78
2021/10/20 07:50:54;;;;;;;11.27;6.50;;;18.60;1.00;;;;;;5075834;28;20210;-79
2021/10/20 07:53:21;;;;;;;9.80;5.93;;;18.80;1.00;;;;;;5075397;28;20210;-78
2021/10/20 07:55:48;;;;;;;8.90;5.18;;;18.90;1.00;;;;;;5074084;28;20289;-74
2021/10/20 07:58:16;;;;;;;6.10;5.50;;;19.10;1.00;;;;;;5073114;28;20264;-74
2021/10/20 08:00:43;;;;;;;11.57;5.50;;;19.30;1.00;;;;;;5069637;28;20209;-78
2021/10/20 08:03:10;;;;;;;6.05;4.90;;;19.40;1.00;;;;;;5093008;28;20233;-76
2021/10/20 08:05:37;;;;;;;12.82;5.57;;;19.50;1.00;;;;;;5082372;28;20205;-77
2021/10/20 08:08:09;;;;;;;10.02;4.32;;;19.60;1.00;;;;;;5092433;28;20691;-79
2021/10/20 08:10:36;;;;;;;6.20;4.90;;;19.60;1.00;;;;;;5082580;28;20205;-78
2021/10/20 08:13:03;;;;;;;12.98;4.75;;;19.60;1.00;;;;;;5079700;28;20205;-76
2021/10/20 08:15:33;;;;;;;8.38;4.85;;;19.70;1.00;;;;;;5092765;28;20210;-76
2021/10/20 08:18:03;;;;;;;13.77;4.68;;;19.60;1.00;;;;;;5091925;28;20259;-79
2021/10/20 08:20:32;;;;;;;10.80;5.68;;;19.70;1.00;;;;;;5091613;28;20673;-80
2021/10/20 08:22:59;;;;;;;10.38;5.07;;;20.00;1.00;;;;;;5088477;28;20662;-81
2021/10/20 08:25:26;;;;;;;10.45;4.95;;;20.30;1.00;;;;;;5090680;28;20251;-81
2021/10/20 08:27:54;;;;;;;8.20;4.53;;;20.50;1.00;;;;;;5087654;28;20213;-77
2021/10/20 08:30:21;;;;;;;7.70;3.95;;;20.50;1.00;;;;;;5089706;28;20278;-78
2021/10/20 08:32:52;;;;;;;8.25;5.22;;;20.40;1.00;;;;;;5086750;28;20206;-76
2021/10/20 08:35:20;;;;;;;7.03;3.78;;;20.30;1.00;;;;;;5089607;28;20677;-76
2021/10/20 08:37:50;;;;;;;11.55;4.95;;;20.20;1.00;;;;;;5086857;28;20633;-77
2021/10/20 08:40:17;;;;;;;11.18;4.65;;;20.10;1.00;;;;;;5078924;28;20240;-81
2021/10/20 08:42:46;;;;;;;8.18;4.18;;;20.20;1.00;;;;;;5088464;28;20229;-77
2021/10/20 08:45:12;;;;;;;9.10;4.18;;;20.30;1.00;;;;;;5086917;28;20250;-79
2021/10/20 08:47:42;;;;;;;8.95;4.22;;;20.30;1.00;;;;;;5069125;28;20206;-76
2021/10/20 08:50:11;;;;;;;9.18;4.90;;;20.30;1.00;;;;;;5080444;28;20209;-74
2021/10/20 08:52:38;;;;;;;7.13;4.45;;;20.50;1.00;;;;;;5078913;28;20263;-77
2021/10/20 08:55:06;;;;;;;10.18;4.70;;;20.60;1.00;;;;;;5080200;28;20256;-77
2021/10/20 08:57:34;;;;;;;6.13;4.28;;;21.00;1.00;;;;;;5079515;28;20554;-78
2021/10/20 09:00:04;;;;;;;7.53;5.32;;;20.70;1.00;;;;;;5077599;28;20210;-79
2021/10/20 09:02:36;;;;;;;9.65;5.07;;;20.60;1.00;;;;;;5078540;28;20275;-78
2021/10/20 09:05:04;;;;;;;11.30;5.22;;;20.40;1.00;;;;;;5072638;28;20591;-78
2021/10/20 09:07:32;;;;;;;6.15;4.28;;;20.40;1.00;;;;;;5077392;28;20206;-78
2021/10/20 09:09:59;;;;;;;9.30;5.38;;;20.60;1.00;;;;;;5075166;28;20210;-79
2021/10/20 09:12:28;;;;;;;7.38;4.95;;;20.80;1.00;;;;;;5075264;28;20248;-80
2021/10/20 09:14:57;;;;;;;6.88;4.15;;;21.00;1.00;;;;;;5092871;28;20205;-82
2021/10/20 09:17:24;;;;;;;7.63;5.07;;;20.90;1.00;;;;;;5078102;28;20206;-83
2021/10/20 09:19:53;;;;;;;12.60;5.72;;;20.60;1.00;;;;;;5064508;28;20741;-80
2021/10/20 09:22:20;;;;;;;6.78;3.85;;;20.70;1.00;;;;;;5091788;28;20209;-80
2021/10/20 09:24:48;;;;;;;8.02;4.13;;;20.90;1.00;;;;;;5086478;28;20206;-78
2021/10/20 09:27:20;;;;;;;16.38;5.20;;;20.90;1.00;;;;;;5058102;28;20256;-79
2021/10/20 09:29:47;;;;;;;8.40;5.40;;;20.80;1.00;;;;;;5075161;28;20205;-78
2021/10/20 09:32:14;;;;;;;7.90;4.20;;;20.90;1.00;;;;;;5067996;28;20259;-78
2021/10/20 09:34:42;;;;;;;10.77;5.80;;;21.00;1.00;;;;;;5074629;28;20214;-78
2021/10/20 09:37:09;;;;;;;11.07;5.45;;;21.10;1.00;;;;;;5072563;28;20214;-77
2021/10/20 09:39:38;;;;;;;7.85;3.85;;;21.50;1.00;;;;;;5073156;28;20259;-80
2021/10/20 09:42:11;;;;;;;7.70;4.25;;;21.50;1.00;;;;;;5059175;28;20260;-81
2021/10/20 09:44:48;;;;;;;10.25;4.97;;;21.30;1.00;;;;;;5081968;28;20290;-79
2021/10/20 09:47:16;;;;;;;7.55;4.68;;;21.30;1.00;;;;;;5090942;28;20205;-79
2021/10/20 09:49:50;;;;;;;8.90;4.80;;;21.30;1.00;;;;;;5090706;28;20672;-77
2021/10/20 09:52:17;;;;;;;7.55;4.65;;;21.30;1.00;;;;;;5066142;28;20204;-77
2021/10/20 09:54:45;;;;;;;6.07;3.97;;;21.40;1.00;;;;;;5091294;28;20749;-77
2021/10/20 09:57:16;;;;;;;7.63;4.55;;;21.50;1.00;;;;;;5090231;28;20233;-76
2021/10/20 09:59:44;;;;;;;7.85;4.80;;;22.20;1.00;;;;;;5090815;28;20205;-81
2021/10/20 10:02:12;;;;;;;7.88;4.45;;;21.90;1.00;;;;;;5090629;28;20262;-80
2021/10/20 10:04:39;;;;;;;11.02;4.88;;;22.20;1.00;;;;;;5091249;28;20229;-80
2021/10/20 10:07:07;;;;;;;8.02;4.35;;;21.80;1.00;;;;;;5090382;28;20223;-81
2021/10/20 10:09:34;;;;;;;9.98;4.78;;;21.70;1.00;;;;;;5090691;28;20201;-80
2021/10/20 10:12:05;;;;;;;10.38;4.38;;;21.90;1.00;;;;;;5090301;28;20274;-80
2021/10/20 10:14:39;;;;;;;14.77;4.22;;;22.00;1.00;;;;;;5091089;28;20216;-79
2021/10/20 10:17:08;;;;;;;6.97;3.60;;;22.20;1.00;;;;;;5091602;28;20295;-80
2021/10/20 10:19:39;;;;;;;9.07;4.22;;;22.10;1.00;;;;;;5089585;28;20197;-79
2021/10/20 10:22:21;;;;;;;10.32;3.85;;;22.20;1.00;;;;;;5078257;28;20202;-80
2021/10/20 10:24:48;;;;;;;8.70;4.82;;;22.70;1.00;;;;;;5091093;28;20775;-79
2021/10/20 10:27:15;;;;;;;5.07;3.88;;;22.90;1.00;;;;;;5090618;28;20209;-78
2021/10/20 10:29:52;;;;;;;7.13;3.92;;;23.10;1.00;;;;;;5091081;28;20210;-83
2021/10/20 10:32:21;;;;;;;9.25;5.28;;;23.20;1.00;;;;;;5090742;28;20681;-82
2021/10/20 10:34:49;;;;;;;7.53;4.30;;;22.70;1.00;;;;;;5091159;28;20221;-79
2021/10/20 10:37:24;;;;;;;7.38;4.53;;;22.80;1.00;;;;;;5091343;28;20217;-90
2021/10/20 10:39:51;;;;;;;6.38;3.30;;;22.90;1.00;;;;;;5091429;28;20672;-87
2021/10/20 10:42:19;;;;;;;11.55;5.22;;;23.10;1.00;;;;;;5091383;28;20665;-87
2021/10/20 10:44:50;;;;;;;7.55;3.20;;;23.20;1.00;;;;;;5091489;28;20286;-85
2021/10/20 10:47:20;;;;;;;9.18;4.30;;;23.20;1.00;;;;;;5091520;28;20210;-88
2021/10/20 10:49:53;;;;;;;6.38;4.30;;;23.00;1.00;;;;;;5091008;28;20243;-86
2021/10/20 10:52:30;;;;;;;6.65;4.05;;;22.60;1.00;;;;;;5078610;28;20201;-88
2021/10/20 10:55:18;;;;;;;4.80;3.53;;;22.50;1.00;;;;;;5091433;28;20266;-88
2021/10/20 10:57:51;;;;;;;8.48;3.30;;;22.70;1.00;;;;;;5092021;28;20730;-88
2021/10/20 11:00:46;;;;;;;5.15;3.38;;;23.00;1.00;;;;;;5091718;28;20205;-83
2021/10/20 11:03:24;;;;;;;11.80;3.55;;;22.90;1.00;;;;;;5090380;28;20233;-76
2021/10/20 11:05:57;;;;;;;5.38;3.78;;;22.90;1.00;;;;;;5064342;28;20673;-83
2021/10/20 11:08:25;;;;;;;7.47;4.07;;;23.20;1.00;;;;;;5091398;28;20206;-88
2021/10/20 11:10:53;;;;;;;5.88;3.38;;;23.40;1.00;;;;;;5090839;28;20206;-86
2021/10/20 11:13:20;;;;;;;5.70;3.78;;;23.70;1.00;;;;;;5091248;28;20201;-89
2021/10/20 11:15:49;;;;;;;6.35;3.47;;;23.50;1.00;;;;;;5086773;28;20877;-81
2021/10/20 11:18:16;;;;;;;7.07;5.07;;;23.60;1.00;;;;;;5079615;28;20201;-82
2021/10/20 11:20:45;;;;;;;7.75;3.47;;;23.40;1.00;;;;;;5087982;28;20213;-82
2021/10/20 11:23:14;;;;;;;7.53;3.42;;;23.30;1.00;;;;;;5088917;28;20312;-88
2021/10/20 11:25:43;;;;;;;8.60;3.72;;;23.10;1.00;;;;;;5088605;28;20216;-75
2021/10/20 11:28:11;;;;;;;6.25;3.13;;;23.00;1.00;;;;;;5087414;28;20231;-78
2021/10/20 11:30:39;;;;;;;7.75;3.72;;;23.10;1.00;;;;;;5089008;28;20259;-84
2021/10/20 11:33:14;;;;;;;4.95;3.60;;;23.10;1.00;;;;;;5083411;28;20206;-79
2021/10/20 11:35:41;;;;;;;8.60;4.03;;;22.80;1.00;;;;;;5061756;28;20237;-83
2021/10/20 11:38:11;;;;;;;5.70;3.72;;;22.90;1.00;;;;;;5069514;28;20689;-82
2021/10/20 11:40:40;;;;;;;7.53;4.05;;;22.90;1.00;;;;;;5080059;28;20210;-80
2021/10/20 11:43:15;;;;;;;8.30;3.90;;;22.80;1.00;;;;;;5087712;28;20662;-83
2021/10/20 11:45:43;;;;;;;5.28;3.30;;;22.90;1.00;;;;;;5087192;28;20209;-80
2021/10/20 11:48:14;;;;;;;7.40;3.95;;;23.20;1.00;;;;;;5082566;28;20202;-84
2021/10/20 11:50:42;;;;;;;6.10;3.88;;;23.20;1.00;;;;;;5086306;28;20209;-88
2021/10/20 11:53:09;;;;;;;6.00;3.45;;;23.20;1.00;;;;;;5086252;28;20209;-84
2021/10/20 11:55:42;;;;;;;9.45;3.72;;;23.40;1.00;;;;;;5084082;28;20206;-81
2021/10/20 11:58:17;;;;;;;7.85;3.20;;;23.40;1.00;;;;;;5067132;28;20207;-73
2021/10/20 12:00:50;;;;;;;7.32;3.47;;;23.20;1.00;;;;;;5062537;28;20214;-81
2021/10/20 12:03:18;;;;;;;5.80;3.35;;;23.40;1.00;;;;;;5076089;28;20207;-77
2021/10/20 12:05:45;;;;;;;5.97;3.25;;;23.50;1.00;;;;;;5075372;28;20262;-78
2021/10/20 12:08:12;;;;;;;5.85;3.15;;;23.50;1.00;;;;;;5069514;28;20610;-78
2021/10/20 12:10:40;;;;;;;8.07;3.88;;;23.30;1.00;;;;;;5079901;28;20669;-78
2021/10/20 12:13:07;;;;;;;5.60;3.17;;;23.40;1.00;;;;;;5076992;28;20275;-79
2021/10/20 12:15:41;;;;;;;10.82;4.10;;;23.40;1.00;;;;;;5088770;28;20275;-81
2021/10/20 12:18:09;;;;;;;4.47;4.00;;;23.30;1.00;;;;;;5089789;28;20262;-80
2021/10/20 12:20:40;;;;;;;5.90;3.30;;;23.50;1.00;;;;;;5074216;28;20271;-73
2021/10/20 12:23:09;;;;;;;4.70;3.88;;;23.70;1.00;;;;;;5067178;28;20301;-74
2021/10/20 12:25:37;;;;;;;3.65;3.33;;;24.10;1.00;;;;;;5073657;28;20238;-75
2021/10/20 12:28:04;;;;;;;7.85;2.78;;;24.00;1.00;;;;;;5073292;28;20212;-75
2021/10/20 12:30:32;;;;;;;4.88;3.60;;;23.80;1.00;;;;;;5073052;28;20279;-76
2021/10/20 12:33:07;;;;;;;5.53;2.88;;;24.20;1.00;;;;;;5072816;28;20263;-74
2021/10/20 12:35:34;;;;;;;5.07;3.28;;;24.40;1.00;;;;;;5082072;28;20205;-74
2021/10/20 12:38:03;;;;;;;3.08;2.75;;;24.40;1.00;;;;;;5090835;28;20214;-74
2021/10/20 12:40:30;;;;;;;4.43;2.85;;;24.30;1.00;;;;;;5091946;28;20209;-74
2021/10/20 12:42:59;;;;;;;3.97;3.28;;;23.90;1.00;;;;;;5090231;28;20210;-76
2021/10/20 12:45:29;;;;;;;5.70;3.25;;;23.70;1.00;;;;;;5090834;28;20225;-76
2021/10/20 12:47:58;;;;;;;5.03;3.83;;;23.50;1.00;;;;;;5089642;28;20227;-76
2021/10/20 12:50:28;;;;;;;8.48;4.03;;;23.50;1.00;;;;;;5078111;28;20205;-75
2021/10/20 12:52:55;;;;;;;4.93;2.72;;;23.80;1.00;;;;;;5088815;28;20604;-76
2021/10/20 12:55:25;;;;;;;4.85;2.45;;;23.90;1.00;;;;;;5087486;28;20255;-76